Time;durP1;ratioP1;P1;durP2;ratioP2;P2;SDS_P1;SDS_P2;PMS_P1;PMS_P2;Temp;Humidity;BMP_temperature;BMP_pressure;BME280_temperature;BME280_humidity;BME280_pressure;Samples;Min_cycle;Max_cycle;Signal;HPM_P1;HPM_P2
2021/01/25 00:00:41;;;;;;;23.42;13.02;;;-1.20;99.90;;;;;;5054513;28;20040;-79
2021/01/25 00:03:07;;;;;;;20.15;13.10;;;-1.30;99.90;;;;;;5055692;28;20512;-79
2021/01/25 00:05:34;;;;;;;22.73;13.98;;;-1.40;99.90;;;;;;5055927;28;20071;-78
2021/01/25 00:08:02;;;;;;;36.25;17.48;;;-1.60;99.90;;;;;;5062311;28;20040;-79
2021/01/25 00:10:28;;;;;;;24.60;15.18;;;-1.70;99.90;;;;;;5052298;28;20041;-78
2021/01/25 00:12:53;;;;;;;;;;;-1.70;99.90;;;;;;5052253;28;20041;-78
2021/01/25 00:15:19;;;;;;;19.77;13.32;;;-1.90;99.90;;;;;;5052640;28;19978;-78
2021/01/25 00:17:45;;;;;;;23.38;15.18;;;-1.90;99.90;;;;;;5056577;28;20430;-81
2021/01/25 00:20:12;;;;;;;24.73;14.30;;;-2.00;99.90;;;;;;5061703;28;20036;-81
2021/01/25 00:22:37;;;;;;;25.38;15.00;;;-2.10;99.90;;;;;;5061155;28;20317;-80
2021/01/25 00:25:04;;;;;;;22.20;15.07;;;-2.20;99.90;;;;;;5031693;28;20546;-80
2021/01/25 00:27:29;;;;;;;32.20;16.17;;;-2.30;99.90;;;;;;5061852;28;20060;-80
2021/01/25 00:29:55;;;;;;;25.98;15.50;;;-2.30;99.90;;;;;;5053484;28;20037;-79
2021/01/25 00:32:24;;;;;;;27.60;16.42;;;-2.40;99.90;;;;;;5061987;28;20120;-79
2021/01/25 00:34:51;;;;;;;24.48;15.48;;;-2.50;99.90;;;;;;5058311;28;20048;-80
2021/01/25 00:37:17;;;;;;;36.78;16.60;;;-2.50;99.90;;;;;;5064074;28;20105;-79
2021/01/25 00:39:43;;;;;;;23.55;15.85;;;-2.50;99.90;;;;;;5060708;28;20068;-79
2021/01/25 00:42:12;;;;;;;29.98;18.33;;;-2.50;99.90;;;;;;5066437;28;20033;-81
2021/01/25 00:44:39;;;;;;;26.70;16.83;;;-2.60;99.90;;;;;;5070275;28;20041;-81
2021/01/25 00:47:07;;;;;;;26.33;17.77;;;-2.60;99.90;;;;;;5063599;28;20115;-80
2021/01/25 00:49:33;;;;;;;33.05;19.52;;;-2.60;99.90;;;;;;5070632;28;20485;-82
2021/01/25 00:52:05;;;;;;;35.55;20.67;;;-2.60;99.90;;;;;;5045845;28;20165;-80
2021/01/25 00:54:32;;;;;;;35.90;22.27;;;-2.50;99.90;;;;;;5073021;28;20355;-81
2021/01/25 00:56:58;;;;;;;37.10;24.08;;;-2.50;99.90;;;;;;5053063;28;20040;-81
2021/01/25 00:59:24;;;;;;;43.50;24.33;;;-2.30;99.90;;;;;;5057953;28;20076;-81
2021/01/25 01:01:51;;;;;;;38.50;23.10;;;-2.30;99.90;;;;;;5053940;28;20059;-81
2021/01/25 01:04:16;;;;;;;41.00;23.42;;;-2.20;99.90;;;;;;5025087;28;20483;-81
2021/01/25 01:06:42;;;;;;;45.65;25.08;;;-2.20;99.90;;;;;;5057598;28;20029;-83
2021/01/25 01:09:08;;;;;;;45.00;25.77;;;-2.20;99.90;;;;;;5055481;28;20040;-81
2021/01/25 01:11:35;;;;;;;44.60;23.30;;;-2.10;99.90;;;;;;5052808;28;20075;-82
2021/01/25 01:14:01;;;;;;;49.20;24.70;;;-2.10;99.90;;;;;;5073816;28;20123;-81
2021/01/25 01:16:27;;;;;;;42.20;23.33;;;-2.00;99.90;;;;;;5056364;28;20074;-83
2021/01/25 01:18:53;;;;;;;40.47;21.75;;;-2.00;99.90;;;;;;5058871;28;20433;-84
2021/01/25 01:21:19;;;;;;;35.92;22.88;;;-2.00;99.90;;;;;;5020501;28;20048;-81
2021/01/25 01:23:44;;;;;;;40.13;21.35;;;-2.00;99.90;;;;;;5063759;28;20036;-81
2021/01/25 01:26:10;;;;;;;29.10;17.70;;;-2.00;99.90;;;;;;5067593;28;20024;-80
2021/01/25 01:28:36;;;;;;;27.60;18.00;;;-2.00;99.90;;;;;;5053419;28;20047;-79
2021/01/25 01:31:02;;;;;;;27.80;16.30;;;-1.10;99.90;;;;;;5056248;28;20036;-79
2021/01/25 01:33:28;;;;;;;;;;;-2.20;99.90;;;;;;5069946;28;20080;-80
2021/01/25 01:35:54;;;;;;;;;;;-2.20;99.90;;;;;;5055935;28;20008;-80
2021/01/25 01:38:19;;;;;;;;;;;-2.20;99.90;;;;;;5066983;28;19943;-81
2021/01/25 01:40:45;;;;;;;;;;;-2.30;99.90;;;;;;5068350;28;20341;-79
2021/01/25 01:43:12;;;;;;;;;;;-2.30;99.90;;;;;;5050542;28;19923;-81
2021/01/25 01:45:41;;;;;;;;;;;-2.20;99.90;;;;;;5056753;28;19927;-81
2021/01/25 01:48:07;;;;;;;;;;;-2.10;99.90;;;;;;5060331;28;19917;-81
2021/01/25 01:50:33;;;;;;;;;;;-2.00;99.90;;;;;;5099953;28;19966;-81
2021/01/25 01:52:59;;;;;;;;;;;-2.00;99.90;;;;;;5070773;28;20019;-82
2021/01/25 01:55:25;;;;;;;;;;;-2.10;99.90;;;;;;5058389;28;19947;-82
2021/01/25 01:57:51;;;;;;;;;;;-2.10;99.90;;;;;;5060240;28;19924;-80
2021/01/25 02:00:17;;;;;;;;;;;-2.20;99.90;;;;;;5060634;28;19955;-78
2021/01/25 02:02:43;;;;;;;;;;;-2.30;99.90;;;;;;5069627;28;19917;-80
2021/01/25 02:05:09;;;;;;;;;;;-2.30;99.90;;;;;;5062682;28;20325;-80
2021/01/25 02:07:35;;;;;;;;;;;-2.20;99.90;;;;;;5064000;28;19923;-82
2021/01/25 02:10:05;;;;;;;;;;;-2.20;99.90;;;;;;5062418;28;19935;-80
2021/01/25 02:12:32;;;;;;;;;;;-2.20;99.90;;;;;;5058528;28;20361;-80
2021/01/25 02:14:59;;;;;;;;;;;-2.20;99.90;;;;;;5079302;28;20019;-80
2021/01/25 02:17:25;;;;;;;;;;;-2.30;99.90;;;;;;5062153;28;19998;-79
2021/01/25 02:20:04;;;;;;;;;;;-2.30;99.90;;;;;;5065023;28;20374;-79
2021/01/25 02:22:36;;;;;;;;;;;-2.40;99.90;;;;;;5070725;28;19927;-81
2021/01/25 02:25:13;;;;;;;;;;;-2.40;99.90;;;;;;5067267;28;19916;-78
2021/01/25 02:27:42;;;;;;;;;;;-2.60;99.90;;;;;;5061657;28;20015;-81
2021/01/25 02:30:10;;;;;;;;;;;-2.60;99.90;;;;;;5063614;28;19924;-78
2021/01/25 02:32:36;;;;;;;;;;;-2.70;99.90;;;;;;5065625;28;20075;-81
2021/01/25 02:35:04;;;;;;;;;;;-2.70;99.90;;;;;;5071333;28;20010;-78
2021/01/25 02:37:30;;;;;;;;;;;-2.50;99.90;;;;;;5067526;28;19970;-79
2021/01/25 02:39:56;;;;;;;;;;;-2.60;99.90;;;;;;5066885;28;19917;-80
2021/01/25 02:42:23;;;;;;;;;;;-2.60;99.90;;;;;;5060331;28;19930;-80
2021/01/25 02:44:49;;;;;;;;;;;-2.60;99.90;;;;;;5068088;28;19969;-80
2021/01/25 02:47:20;;;;;;;;;;;-2.60;99.90;;;;;;5085757;28;19920;-79
2021/01/25 02:49:46;;;;;;;;;;;-2.40;99.90;;;;;;5080965;28;19959;-81
2021/01/25 02:52:16;;;;;;;;;;;-2.10;99.90;;;;;;5069044;28;19956;-79
2021/01/25 02:54:42;;;;;;;;;;;-1.90;99.90;;;;;;5067256;28;19938;-80
2021/01/25 02:57:08;;;;;;;;;;;-1.80;99.90;;;;;;5067437;28;19930;-78
2021/01/25 02:59:38;;;;;;;;;;;-1.80;99.90;;;;;;5051448;28;19924;-80
2021/01/25 03:02:07;;;;;;;;;;;-1.70;99.90;;;;;;5068503;28;19917;-78
2021/01/25 03:04:36;;;;;;;;;;;-1.60;99.90;;;;;;5066211;28;19916;-80
2021/01/25 03:07:02;;;;;;;;;;;-1.60;99.90;;;;;;5058416;28;20003;-81
2021/01/25 03:09:29;;;;;;;;;;;-1.60;99.90;;;;;;5051312;28;20284;-79
2021/01/25 03:11:56;;;;;;;;;;;-1.60;99.90;;;;;;5068140;28;20254;-78
2021/01/25 03:14:22;;;;;;;;;;;-1.60;99.90;;;;;;5069197;28;19979;-78
2021/01/25 03:16:48;;;;;;;;;;;-1.60;99.90;;;;;;5066810;28;20393;-79
2021/01/25 03:19:14;;;;;;;;;;;-1.70;99.90;;;;;;5059412;28;20054;-79
2021/01/25 03:21:46;;;;;;;;;;;-1.80;99.90;;;;;;5070739;28;20375;-80
2021/01/25 03:24:12;;;;;;;;;;;-1.90;99.90;;;;;;5055335;28;19916;-79
2021/01/25 03:26:37;;;;;;;;;;;-1.80;99.90;;;;;;5057204;28;19958;-78
2021/01/25 03:29:03;;;;;;;;;;;-1.70;99.90;;;;;;5083324;28;19917;-78
2021/01/25 03:31:29;;;;;;;;;;;-1.70;99.90;;;;;;5081760;28;19920;-80
2021/01/25 03:33:55;;;;;;;;;;;-1.70;99.90;;;;;;5065981;28;19931;-80
2021/01/25 03:36:21;;;;;;;;;;;-1.70;99.90;;;;;;5060013;28;19916;-78
2021/01/25 03:38:47;;;;;;;;;;;-1.70;99.90;;;;;;5068266;28;20359;-80
2021/01/25 03:41:13;;;;;;;;;;;-1.70;99.90;;;;;;5064018;28;19969;-80
2021/01/25 03:43:38;;;;;;;;;;;-1.80;99.90;;;;;;5067856;28;20016;-79
2021/01/25 03:46:04;;;;;;;;;;;-1.70;99.90;;;;;;5064054;28;19916;-80
2021/01/25 03:48:31;;;;;;;;;;;-1.80;99.90;;;;;;5062598;28;19948;-79
2021/01/25 03:50:57;;;;;;;;;;;-1.80;99.90;;;;;;5066132;28;19921;-80
2021/01/25 03:53:23;;;;;;;;;;;-1.80;99.90;;;;;;5067868;28;20007;-82
2021/01/25 03:55:49;;;;;;;;;;;-1.70;99.90;;;;;;5067017;28;19920;-83
2021/01/25 03:58:14;;;;;;;;;;;-1.70;99.90;;;;;;5059028;28;19920;-81
2021/01/25 04:00:40;;;;;;;;;;;-1.60;99.90;;;;;;5067151;28;19920;-79
2021/01/25 04:03:06;;;;;;;;;;;-1.50;99.90;;;;;;5066476;28;19974;-81
2021/01/25 04:05:31;;;;;;;;;;;-0.60;99.90;;;;;;5058939;28;19917;-79
2021/01/25 04:07:57;;;;;;;;;;;-1.30;99.90;;;;;;5091238;28;19924;-81
2021/01/25 04:10:23;;;;;;;;;;;-1.30;99.90;;;;;;5063463;28;20328;-80
2021/01/25 04:12:48;;;;;;;;;;;-0.50;99.90;;;;;;5063694;28;19929;-80
2021/01/25 04:15:14;;;;;;;;;;;-1.30;99.90;;;;;;5064775;28;19948;-81
2021/01/25 04:17:40;;;;;;;;;;;-1.20;99.90;;;;;;5065975;28;19921;-81
2021/01/25 04:20:05;;;;;;;;;;;-1.20;99.90;;;;;;5064967;28;20342;-80
2021/01/25 04:22:31;;;;;;;;;;;-1.20;99.90;;;;;;5076301;28;19924;-78
2021/01/25 04:24:58;;;;;;;;;;;-1.20;99.90;;;;;;5065739;28;19916;-82
2021/01/25 04:27:24;;;;;;;;;;;-1.10;99.90;;;;;;5062468;28;20254;-82
2021/01/25 04:29:50;;;;;;;;;;;-0.70;99.90;;;;;;5072553;28;19920;-80
2021/01/25 04:32:15;;;;;;;;;;;-1.20;99.90;;;;;;5059006;28;19916;-80
2021/01/25 04:34:41;;;;;;;;;;;-1.20;99.90;;;;;;5065518;28;19920;-79
2021/01/25 04:37:07;;;;;;;;;;;-1.20;99.90;;;;;;5061387;28;20366;-80
2021/01/25 04:39:33;;;;;;;;;;;-1.20;99.90;;;;;;5053392;28;19921;-81
2021/01/25 04:41:59;;;;;;;;;;;-1.20;99.90;;;;;;5068919;28;19981;-82
2021/01/25 04:44:25;;;;;;;;;;;-1.30;99.90;;;;;;5069355;28;19948;-78
2021/01/25 04:46:53;;;;;;;;;;;-1.20;99.90;;;;;;5054049;28;20018;-81
2021/01/25 04:49:21;;;;;;;;;;;-1.10;99.90;;;;;;5064067;28;19951;-79
2021/01/25 04:51:46;;;;;;;;;;;-1.10;99.90;;;;;;5064441;28;20380;-78
2021/01/25 04:54:13;;;;;;;;;;;-1.10;99.90;;;;;;5063978;28;20007;-82
2021/01/25 04:56:40;;;;;;;;;;;-1.10;99.90;;;;;;5057150;28;20003;-80
2021/01/25 04:59:06;;;;;;;;;;;-1.20;99.90;;;;;;5064169;28;20428;-78
2021/01/25 05:01:32;;;;;;;;;;;-1.10;99.90;;;;;;5061237;28;19921;-81
2021/01/25 05:03:58;;;;;;;;;;;-1.10;99.90;;;;;;5072374;28;19917;-79
2021/01/25 05:06:25;;;;;;;;;;;-1.10;99.90;;;;;;5065472;28;19916;-82
2021/01/25 05:08:50;;;;;;;;;;;-1.10;99.90;;;;;;5067832;28;19985;-81
2021/01/25 05:11:17;;;;;;;;;;;-1.20;99.90;;;;;;5059750;28;20015;-81
2021/01/25 05:13:44;;;;;;;;;;;-1.20;99.90;;;;;;5063863;28;19916;-79
2021/01/25 05:16:18;;;;;;;;;;;-1.30;99.90;;;;;;5062115;28;20003;-78
2021/01/25 05:18:44;;;;;;;;;;;-1.30;99.90;;;;;;5066487;28;19920;-79
2021/01/25 05:21:10;;;;;;;;;;;-1.30;99.90;;;;;;5070241;28;20009;-82
2021/01/25 05:23:36;;;;;;;;;;;-1.30;99.90;;;;;;5067353;28;19916;-79
2021/01/25 05:26:08;;;;;;;;;;;-1.30;99.90;;;;;;5055909;28;20156;-76
2021/01/25 05:28:41;;;;;;;;;;;-1.30;99.90;;;;;;5062117;28;19999;-79
2021/01/25 05:31:16;;;;;;;;;;;-1.30;99.90;;;;;;5063570;28;19917;-78
2021/01/25 05:33:42;;;;;;;;;;;-1.30;99.90;;;;;;5057683;28;19916;-78
2021/01/25 05:36:08;;;;;;;;;;;-1.30;99.90;;;;;;5056188;28;20008;-76
2021/01/25 05:38:34;;;;;;;;;;;-1.30;99.90;;;;;;5068568;28;19998;-76
2021/01/25 05:40:59;;;;;;;;;;;-1.30;99.90;;;;;;5064411;28;19920;-76
2021/01/25 05:43:31;;;;;;;;;;;-1.30;99.90;;;;;;5063094;28;19927;-76
2021/01/25 05:46:04;;;;;;;;;;;-1.40;99.90;;;;;;5071417;28;20202;-77
2021/01/25 05:48:30;;;;;;;;;;;-1.40;99.90;;;;;;5061665;28;20353;-76
2021/01/25 05:50:56;;;;;;;;;;;-1.40;99.90;;;;;;5070189;28;19928;-76
2021/01/25 05:53:22;;;;;;;;;;;-1.40;99.90;;;;;;5070112;28;20313;-76
2021/01/25 05:55:49;;;;;;;;;;;-1.40;99.90;;;;;;5071303;28;20297;-76
2021/01/25 05:58:21;;;;;;;;;;;-1.30;99.90;;;;;;5068305;28;19987;-76
2021/01/25 06:00:47;;;;;;;;;;;-1.30;99.90;;;;;;5065532;28;19921;-77
2021/01/25 06:03:13;;;;;;;;;;;-1.30;99.90;;;;;;5067454;28;19923;-76
2021/01/25 06:05:41;;;;;;;;;;;-1.30;99.90;;;;;;5065960;28;19921;-76
2021/01/25 06:08:08;;;;;;;;;;;-1.40;99.90;;;;;;5056445;28;19917;-77
2021/01/25 06:10:53;;;;;;;;;;;-1.30;99.90;;;;;;5066915;28;20361;-77
2021/01/25 06:13:21;;;;;;;;;;;-1.40;99.90;;;;;;5057736;28;20015;-77
2021/01/25 06:15:48;;;;;;;;;;;-1.40;99.90;;;;;;5069547;28;19916;-76
2021/01/25 06:18:15;;;;;;;;;;;-1.40;99.90;;;;;;5067957;28;19960;-74
2021/01/25 06:20:41;;;;;;;;;;;-1.40;99.90;;;;;;5055790;28;20323;-77
2021/01/25 06:23:08;;;;;;;;;;;-1.40;99.90;;;;;;5062791;28;20270;-75
2021/01/25 06:25:35;;;;;;;;;;;-1.40;99.90;;;;;;5051901;28;19982;-76
2021/01/25 06:28:01;;;;;;;;;;;-1.40;99.90;;;;;;5066369;28;19971;-76
2021/01/25 06:30:28;;;;;;;;;;;-1.30;99.90;;;;;;5066444;28;20015;-76
2021/01/25 06:32:54;;;;;;;;;;;-1.30;99.90;;;;;;5061287;28;20007;-76
2021/01/25 06:35:20;;;;;;;;;;;-1.20;99.90;;;;;;5059098;28;19923;-77
2021/01/25 06:37:53;;;;;;;;;;;-1.20;99.90;;;;;;5065134;28;19924;-79
2021/01/25 06:40:22;;;;;;;;;;;-1.10;99.90;;;;;;5061787;28;19924;-77
2021/01/25 06:42:48;;;;;;;;;;;-1.10;99.90;;;;;;5074187;28;19917;-78
2021/01/25 06:45:14;;;;;;;;;;;-1.10;99.90;;;;;;5051631;28;19925;-78
2021/01/25 06:47:41;;;;;;;;;;;-1.10;99.90;;;;;;5066702;28;19927;-77
2021/01/25 06:50:07;;;;;;;;;;;-1.10;99.90;;;;;;5061084;28;19916;-75
2021/01/25 06:52:37;;;;;;;;;;;-1.10;99.90;;;;;;5056847;28;19920;-75
2021/01/25 06:55:04;;;;;;;;;;;-1.10;99.90;;;;;;5061003;28;19916;-77
2021/01/25 06:57:32;;;;;;;;;;;-1.10;99.90;;;;;;5055624;28;19978;-78
2021/01/25 07:00:03;;;;;;;;;;;-1.10;99.90;;;;;;5060458;28;20022;-77
2021/01/25 07:02:28;;;;;;;;;;;-1.10;99.90;;;;;;5056143;28;19916;-77
2021/01/25 07:04:58;;;;;;;;;;;-1.00;99.90;;;;;;5051096;28;19921;-77
2021/01/25 07:07:26;;;;;;;;;;;-1.00;99.90;;;;;;5065329;28;19974;-77
2021/01/25 07:09:52;;;;;;;;;;;-1.00;99.90;;;;;;5060075;28;19924;-78
2021/01/25 07:12:19;;;;;;;;;;;-1.00;99.90;;;;;;5058646;28;20417;-76
2021/01/25 07:14:46;;;;;;;;;;;-1.00;99.90;;;;;;5061270;28;19927;-79
2021/01/25 07:17:11;;;;;;;;;;;-1.10;99.90;;;;;;5054730;28;19920;-76
2021/01/25 07:19:37;;;;;;;;;;;-1.10;99.90;;;;;;5056754;28;20277;-77
2021/01/25 07:22:03;;;;;;;;;;;-1.20;99.90;;;;;;5064059;28;20026;-75
2021/01/25 07:24:29;;;;;;;;;;;-1.10;99.90;;;;;;5058289;28;20744;-77
2021/01/25 07:26:55;;;;;;;;;;;-1.10;99.90;;;;;;5061363;28;19929;-76
2021/01/25 07:29:23;;;;;;;;;;;-1.10;99.90;;;;;;5056554;28;19927;-75
2021/01/25 07:31:50;;;;;;;;;;;-1.20;99.90;;;;;;5060798;28;19924;-77
2021/01/25 07:34:15;;;;;;;;;;;-1.20;99.90;;;;;;5095827;28;20018;-76
2021/01/25 07:36:41;;;;;;;;;;;-1.20;99.90;;;;;;5057850;28;20020;-77
2021/01/25 07:39:08;;;;;;;;;;;-1.20;99.90;;;;;;5054296;28;19928;-76
2021/01/25 07:41:35;;;;;;;;;;;-1.30;99.90;;;;;;5060832;28;20015;-76
2021/01/25 07:44:01;;;;;;;;;;;-1.30;99.90;;;;;;5055016;28;20397;-77
2021/01/25 07:46:27;;;;;;;;;;;-1.30;99.90;;;;;;5052105;28;20361;-77
2021/01/25 07:48:53;;;;;;;;;;;-1.20;99.90;;;;;;5054010;28;20000;-77
2021/01/25 07:51:20;;;;;;;;;;;-1.30;99.90;;;;;;5062547;28;20021;-76
2021/01/25 07:53:54;;;;;;;;;;;-1.30;99.90;;;;;;5048486;28;19961;-77
2021/01/25 07:56:23;;;;;;;;;;;-1.30;99.90;;;;;;5052110;28;19955;-77
2021/01/25 07:58:49;;;;;;;;;;;-1.20;99.90;;;;;;5058481;28;19920;-77
2021/01/25 08:01:19;;;;;;;;;;;-1.20;99.90;;;;;;5057815;28;20664;-76
2021/01/25 08:03:47;;;;;;;;;;;-1.20;99.90;;;;;;5064522;28;20342;-77
2021/01/25 08:06:13;;;;;;;;;;;-1.10;99.90;;;;;;5048153;28;19920;-77
2021/01/25 08:08:39;;;;;;;;;;;-1.10;99.90;;;;;;5053789;28;20030;-78
2021/01/25 08:11:08;;;;;;;;;;;-1.00;99.90;;;;;;5052099;28;19921;-77
2021/01/25 08:13:38;;;;;;;;;;;-1.00;99.90;;;;;;5056393;28;20411;-77
2021/01/25 08:16:15;;;;;;;;;;;-1.00;99.90;;;;;;5055536;28;19916;-77
2021/01/25 08:19:05;;;;;;;;;;;-0.90;99.90;;;;;;5056031;28;19931;-76
2021/01/25 08:21:37;;;;;;;;;;;-0.80;99.90;;;;;;5060142;28;19920;-77
2021/01/25 08:24:04;;;;;;;;;;;-0.70;99.90;;;;;;5069187;28;19920;-77
2021/01/25 08:26:30;;;;;;;;;;;-0.60;99.90;;;;;;5063949;28;20030;-77
2021/01/25 08:28:58;;;;;;;;;;;-0.50;99.90;;;;;;5069678;28;20006;-76
2021/01/25 08:31:33;;;;;;;;;;;-0.40;99.90;;;;;;5060315;28;19974;-77
2021/01/25 08:34:05;;;;;;;;;;;-0.30;99.90;;;;;;5060317;28;19925;-77
2021/01/25 08:36:35;;;;;;;;;;;-0.10;99.90;;;;;;5081217;28;20032;-77
2021/01/25 08:39:27;;;;;;;;;;;-0.10;99.90;;;;;;5055074;28;19983;-77
2021/01/25 08:41:54;;;;;;;;;;;0.00;99.90;;;;;;5037378;28;20016;-77
2021/01/25 08:44:22;;;;;;;;;;;0.00;99.90;;;;;;5065792;28;20356;-77
2021/01/25 08:46:48;;;;;;;;;;;0.00;99.90;;;;;;5060112;28;20262;-77
2021/01/25 08:49:17;;;;;;;;;;;0.10;99.90;;;;;;5099303;28;20451;-77
2021/01/25 08:51:56;;;;;;;;;;;0.00;99.90;;;;;;5071798;28;19973;-77
2021/01/25 08:54:24;;;;;;;;;;;-0.10;99.90;;;;;;5063412;28;20007;-77
2021/01/25 08:56:49;;;;;;;;;;;-0.10;99.90;;;;;;5068418;28;20088;-77
2021/01/25 08:59:27;;;;;;;;;;;-0.10;99.90;;;;;;5065985;28;20365;-77
2021/01/25 09:01:53;;;;;;;;;;;-0.10;99.90;;;;;;5058814;28;19924;-77
2021/01/25 09:04:19;;;;;;;;;;;-0.20;99.90;;;;;;5092824;28;19921;-77
2021/01/25 09:06:51;;;;;;;;;;;-0.20;99.90;;;;;;5092708;28;20353;-77
2021/01/25 09:09:18;;;;;;;;;;;-0.20;99.90;;;;;;5071996;28;19981;-77
2021/01/25 09:11:44;;;;;;;;;;;-0.20;99.90;;;;;;5080325;28;20003;-78
2021/01/25 09:14:10;;;;;;;;;;;-0.20;99.90;;;;;;5067096;28;20081;-76
2021/01/25 09:16:35;;;;;;;;;;;-0.10;99.90;;;;;;5068606;28;19916;-76
2021/01/25 09:19:04;;;;;;;;;;;0.10;99.90;;;;;;5080122;28;19924;-77
2021/01/25 09:21:30;;;;;;;;;;;0.10;99.90;;;;;;5072682;28;20049;-77
2021/01/25 09:23:55;;;;;;;;;;;0.20;99.90;;;;;;5059683;28;19920;-77
2021/01/25 09:26:21;;;;;;;;;;;0.30;99.90;;;;;;5070920;28;19955;-77
2021/01/25 09:28:47;;;;;;;;;;;0.40;99.90;;;;;;5056854;28;20061;-78
2021/01/25 09:31:14;;;;;;;;;;;0.40;99.90;;;;;;5073201;28;19924;-77
2021/01/25 09:33:40;;;;;;;;;;;0.40;99.90;;;;;;5063349;28;19924;-76
2021/01/25 09:36:06;;;;;;;;;;;0.40;99.90;;;;;;5054725;28;20418;-76
2021/01/25 09:38:31;;;;;;;;;;;0.50;99.90;;;;;;5055681;28;19959;-76
2021/01/25 09:40:57;;;;;;;;;;;0.60;99.90;;;;;;5081022;28;20274;-76
2021/01/25 09:43:23;;;;;;;;;;;0.60;99.90;;;;;;5057413;28;20322;-77
2021/01/25 09:45:49;;;;;;;;;;;0.70;99.90;;;;;;5066560;28;20088;-77
2021/01/25 09:48:15;;;;;;;;;;;0.80;99.90;;;;;;5063546;28;19916;-77
2021/01/25 09:50:41;;;;;;;;;;;0.90;99.90;;;;;;5069832;28;19920;-77
2021/01/25 09:53:07;;;;;;;;;;;1.10;99.90;;;;;;5061647;28;19921;-77
2021/01/25 09:55:33;;;;;;;;;;;1.10;99.90;;;;;;5064541;28;20008;-77
2021/01/25 09:57:59;;;;;;;;;;;1.10;99.90;;;;;;5037556;28;19948;-77
2021/01/25 10:00:25;;;;;;;;;;;1.30;99.90;;;;;;5058527;28;19971;-76
2021/01/25 10:02:50;;;;;;;;;;;1.40;99.90;;;;;;5060857;28;20344;-76
2021/01/25 10:05:17;;;;;;;;;;;1.40;99.90;;;;;;5061842;28;20020;-77
2021/01/25 10:07:42;;;;;;;;;;;2.10;99.90;;;;;;5058133;28;19927;-76
2021/01/25 10:10:10;;;;;;;;;;;1.60;99.90;;;;;;5063985;28;19942;-77
2021/01/25 10:12:36;;;;;;;;;;;1.60;99.90;;;;;;5065013;28;20380;-76
2021/01/25 10:15:02;;;;;;;;;;;1.70;99.90;;;;;;5054608;28;20015;-78
2021/01/25 10:17:28;;;;;;;;;;;1.70;99.90;;;;;;5064122;28;19970;-78
2021/01/25 10:19:54;;;;;;;;;;;1.60;99.90;;;;;;5068110;28;20456;-78
2021/01/25 10:22:21;;;;;;;;;;;1.70;99.90;;;;;;5059114;28;20011;-78
2021/01/25 10:24:46;;;;;;;;;;;1.80;99.90;;;;;;5050056;28;19920;-79
2021/01/25 10:27:13;;;;;;;;;;;1.90;99.90;;;;;;5065312;28;19923;-79
2021/01/25 10:29:38;;;;;;;;;;;2.00;99.90;;;;;;5077836;28;20332;-79
2021/01/25 10:32:04;;;;;;;;;;;2.10;99.90;;;;;;5077375;28;19921;-79
2021/01/25 10:34:30;;;;;;;;;;;2.20;99.90;;;;;;5063588;28;20042;-79
2021/01/25 10:36:56;;;;;;;;;;;2.30;99.90;;;;;;5082968;28;20314;-79
2021/01/25 10:39:21;;;;;;;;;;;2.40;99.90;;;;;;5064363;28;19924;-80
2021/01/25 10:41:50;;;;;;;;;;;2.30;99.90;;;;;;5067451;28;19966;-79
2021/01/25 10:44:17;;;;;;;;;;;2.30;99.90;;;;;;5064241;28;20190;-79
2021/01/25 10:46:44;;;;;;;;;;;2.30;99.90;;;;;;5056304;28;19994;-80
2021/01/25 10:49:10;;;;;;;;;;;2.20;99.90;;;;;;5052245;28;19990;-79
2021/01/25 10:51:36;;;;;;;;;;;2.20;99.90;;;;;;5063005;28;19917;-79
2021/01/25 10:54:02;;;;;;;;;;;2.20;99.90;;;;;;5077587;28;20380;-79
2021/01/25 10:56:28;;;;;;;;;;;2.30;99.90;;;;;;5028348;28;20023;-78
2021/01/25 10:58:54;;;;;;;;;;;2.40;99.90;;;;;;5077699;28;20102;-78
2021/01/25 11:01:19;;;;;;;;;;;2.50;99.90;;;;;;5073317;28;19932;-81
2021/01/25 11:03:46;;;;;;;;;;;2.70;99.90;;;;;;5061564;28;19923;-77
2021/01/25 11:06:16;;;;;;;;;;;2.80;99.90;;;;;;5063115;28;19928;-81
2021/01/25 11:08:42;;;;;;;;;;;2.90;99.90;;;;;;5050543;28;19962;-80
2021/01/25 11:11:08;;;;;;;;;;;3.00;99.90;;;;;;5049611;28;19921;-79
2021/01/25 11:13:34;;;;;;;;;;;3.80;99.90;;;;;;5062476;28;19947;-80
2021/01/25 11:15:59;;;;;;;;;;;3.00;99.90;;;;;;5062339;28;20514;-80
2021/01/25 11:18:25;;;;;;;;;;;3.10;99.90;;;;;;5067206;28;19924;-80
2021/01/25 11:20:51;;;;;;;;;;;3.40;99.90;;;;;;5047779;28;20011;-80
2021/01/25 11:23:17;;;;;;;;;;;3.20;99.90;;;;;;5059710;28;19928;-79
2021/01/25 11:25:42;;;;;;;;;;;3.40;99.90;;;;;;5065998;28;20003;-78
2021/01/25 11:28:08;;;;;;;;;;;3.30;99.90;;;;;;5053013;28;19920;-79
2021/01/25 11:30:34;;;;;;;;;;;3.30;99.90;;;;;;5060557;28;19970;-80
2021/01/25 11:32:59;;;;;;;;;;;3.40;99.90;;;;;;5076240;28;19924;-80
2021/01/25 11:35:26;;;;;;;;;;;3.30;99.90;;;;;;5063102;28;19974;-80
2021/01/25 11:37:52;;;;;;;;;;;3.40;99.90;;;;;;5078801;28;19929;-80
2021/01/25 11:40:18;;;;;;;;;;;3.40;99.90;;;;;;5058282;28;19917;-79
2021/01/25 11:42:44;;;;;;;;;;;3.40;99.90;;;;;;5051103;28;19924;-80
2021/01/25 11:45:10;;;;;;;;;;;3.40;99.90;;;;;;5060896;28;20433;-79
2021/01/25 11:47:36;;;;;;;;;;;3.40;99.90;;;;;;5052586;28;20395;-79
2021/01/25 11:50:03;;;;;;;;;;;3.50;99.90;;;;;;5058655;28;19963;-81
2021/01/25 11:52:28;;;;;;;;;;;3.50;99.90;;;;;;5052627;28;20030;-79
2021/01/25 11:54:54;;;;;;;;;;;3.70;99.90;;;;;;5046361;28;19948;-79
2021/01/25 11:57:20;;;;;;;;;;;3.60;99.90;;;;;;5056251;28;19920;-79
2021/01/25 11:59:46;;;;;;;;;;;3.60;99.90;;;;;;5065321;28;20010;-78
2021/01/25 12:02:12;;;;;;;;;;;3.80;99.90;;;;;;5060341;28;19925;-79
2021/01/25 12:04:38;;;;;;;;;;;3.80;99.90;;;;;;5067798;28;19966;-78
2021/01/25 12:07:03;;;;;;;;;;;4.30;99.90;;;;;;5055842;28;19925;-78
2021/01/25 12:09:30;;;;;;;;;;;3.90;99.90;;;;;;5065669;28;20471;-79
2021/01/25 12:11:55;;;;;;;;;;;4.10;99.90;;;;;;5056985;28;19921;-78
2021/01/25 12:14:21;;;;;;;;;;;4.00;99.90;;;;;;5057033;28;20258;-78
2021/01/25 12:16:47;;;;;;;;;;;4.10;99.90;;;;;;5064106;28;19920;-79
2021/01/25 12:19:13;;;;;;;;;;;4.10;99.90;;;;;;5071561;28;19989;-80
2021/01/25 12:21:38;;;;;;;;;;;4.20;99.90;;;;;;5066788;28;20349;-80
2021/01/25 12:24:04;;;;;;;;;;;4.10;99.90;;;;;;5060225;28;19944;-80
2021/01/25 12:26:30;;;;;;;;;;;4.10;99.90;;;;;;5065524;28;19975;-80
2021/01/25 12:28:56;;;;;;;;;;;4.10;99.90;;;;;;5058059;28;19920;-80
2021/01/25 12:31:23;;;;;;;;;;;4.20;99.90;;;;;;5049218;28;20350;-80
2021/01/25 12:33:49;;;;;;;;;;;4.20;99.90;;;;;;5044568;28;19916;-80
2021/01/25 12:36:14;;;;;;;;;;;4.20;99.90;;;;;;5066785;28;20253;-80
2021/01/25 12:38:46;;;;;;;;;;;4.30;99.20;;;;;;5061420;28;19927;-80
2021/01/25 12:41:12;;;;;;;;;;;4.30;98.70;;;;;;5074048;28;19920;-79
2021/01/25 12:43:37;;;;;;;;;;;4.40;98.60;;;;;;5082949;28;19921;-79
2021/01/25 12:46:06;;;;;;;;;;;4.40;98.80;;;;;;5082761;28;19943;-80
2021/01/25 12:48:32;;;;;;;;;;;4.50;98.20;;;;;;5057300;28;19982;-79
2021/01/25 12:50:57;;;;;;;;;;;4.60;97.70;;;;;;5080847;28;19921;-79
2021/01/25 12:53:24;;;;;;;;;;;4.80;97.10;;;;;;5059940;28;19924;-78
2021/01/25 12:55:50;;;;;;;;;;;4.60;97.00;;;;;;5081132;28;20015;-79
2021/01/25 12:58:16;;;;;;;;;;;4.60;97.10;;;;;;5065456;28;19921;-79
2021/01/25 13:00:42;;;;;;;;;;;4.60;96.60;;;;;;5065428;28;19927;-78
2021/01/25 13:03:07;;;;;;;;;;;4.60;96.80;;;;;;5045298;28;19967;-80
2021/01/25 13:05:34;;;;;;;;;;;4.60;96.10;;;;;;5064943;28;20357;-78
2021/01/25 13:08:01;;;;;;;;;;;4.70;95.80;;;;;;5060359;28;19924;-79
2021/01/25 13:10:27;;;;;;;;;;;4.60;96.00;;;;;;5069936;28;19963;-80
2021/01/25 13:12:52;;;;;;;;;;;4.70;95.50;;;;;;5062912;28;19986;-79
2021/01/25 13:15:19;;;;;;;;;;;4.70;96.30;;;;;;5069719;28;19920;-78
2021/01/25 13:17:48;;;;;;;;;;;4.70;95.30;;;;;;5060376;28;19931;-79
2021/01/25 13:20:16;;;;;;;;;;;4.70;94.50;;;;;;5061920;28;20665;-79
2021/01/25 13:22:41;;;;;;;;;;;4.70;94.50;;;;;;5064489;28;19933;-79
2021/01/25 13:25:07;;;;;;;;;;;4.70;94.60;;;;;;5088617;28;19916;-79
2021/01/25 13:27:33;;;;;;;;;;;4.70;95.20;;;;;;5070231;28;19920;-79
2021/01/25 13:29:59;;;;;;;;;;;5.20;95.90;;;;;;5052370;28;20015;-79
2021/01/25 13:32:25;;;;;;;;;;;4.70;94.40;;;;;;5061066;28;19966;-80
2021/01/25 13:34:51;;;;;;;;;;;4.60;93.50;;;;;;5049218;28;19916;-79
2021/01/25 13:37:16;;;;;;;;;;;5.40;93.60;;;;;;5064312;28;20323;-80
2021/01/25 13:39:42;;;;;;;;;;;4.70;94.10;;;;;;5069820;28;19932;-78
2021/01/25 13:42:08;;;;;;;;;;;4.70;93.90;;;;;;5063100;28;19924;-80
2021/01/25 13:44:34;;;;;;;;;;;4.70;92.80;;;;;;5061971;28;19966;-79
2021/01/25 13:47:00;;;;;;;;;;;4.90;92.80;;;;;;5073277;28;19925;-79
2021/01/25 13:49:25;;;;;;;;;;;4.80;91.70;;;;;;5049802;28;19924;-78
2021/01/25 13:51:51;;;;;;;;;;;4.80;92.00;;;;;;5062908;28;19920;-78
2021/01/25 13:54:17;;;;;;;;;;;4.80;92.10;;;;;;5063380;28;19963;-80
2021/01/25 13:56:43;;;;;;;;;;;4.80;93.00;;;;;;5073672;28;19927;-78
2021/01/25 13:59:11;;;;;;;;;;;4.90;90.80;;;;;;5067003;28;19944;-80
2021/01/25 14:01:37;;;;;;;;;;;4.90;89.40;;;;;;5051392;28;20378;-79
2021/01/25 14:04:03;;;;;;;;;;;4.90;90.30;;;;;;5064636;28;20030;-79
2021/01/25 14:06:28;;;;;;;;;;;5.00;89.70;;;;;;5049526;28;20437;-79